Kezdőlap
METAR-TAF:

METAR-TAF

Repülőterek :

O'Neill Municipal Airport (John L. Baker Field)

O'Neill, Nebraska, Amerikai Egyesült Államok

földrajzi szélesség: 42-28N, földrajzi hosszúság: 098-41W, magasság: 619 m

Jelenlegi meteorológiai megfigyelések

A jelentés 19 perccel ezelõtt készült, 02:55 UTC
Északi szél 4 kt
Hőmérséklet 25°C
Páratartalom 74%
Légköri nyomás 1008 hPa
Látótávolság: 16.1 km
Derült ég

METAR: KONL 130255Z AUTO 01004KT 10SM CLR 25/20 A2978 RMK AO2 T02480195

Idő: 22:14 (03:14 UTC)


TAF: hiányzik

Meteorológiai megfigyelések és előrejelzések több, mint 4000 repülőtéren (METAR és TAF jelentéseket).

A térképen piros és sárga pontok jelzik az elérhető meteorológiai állomásokat.

Mozgassa az egeret a pont fölött, hogy megjelenjen az állomás neve.

Azután kattintson az időjárási megfigyelések és előrejelzések megtekintéséhez.

A térkép megváltoztatása: kattintson a fekete keresztel jelölt zöld gombra ráközelítéshez, a vonallal jelölt zöld gombra távolításhoz, vagy a zöld nyilakra a szomszédos térképek eléréséhez.


METAR-TAF: